Airport ID:KMHV
Update Time (UTC):22/08/2019 08:29
Wind Speed (Knots):8
Wind Direction (Magnetic):310
Temperature (°C):24
Dew Point (°C):6
Humidity (%):31
Altimeter (inHg):29.83
Density Altitude (Feet):4700
Visibility (Miles):10+
Clouds (Hundreds of feet):CLR
Present Weather:
METAR:METAR KMHV 220820Z AUTO 32004G11KT 10SM CLR 24/07 A2984 RMK A01

The data displayed is for advisory purposes only and is not to be used for flight planning or operations.

This page is not automatically refreshed. Reload the page to see current data.